Time;durP1;ratioP1;P1;durP2;ratioP2;P2;SDS_P1;SDS_P2;PMS_P1;PMS_P2;Temp;Humidity;BMP_temperature;BMP_pressure;BME280_temperature;BME280_humidity;BME280_pressure;Samples;Min_cycle;Max_cycle;Signal;HPM_P1;HPM_P2
2021/09/28 00:01:54;;;;;;;6.32;0.75;;;;;;;19.07;44.85;100560.91;4401333;32;20073;-68
2021/09/28 00:04:20;;;;;;;13.98;1.55;;;;;;;19.07;45.01;100563.78;4400445;32;20027;-68
2021/09/28 00:06:45;;;;;;;11.48;1.58;;;;;;;19.04;45.12;100561.94;4405393;32;20073;-68
2021/09/28 00:09:11;;;;;;;10.05;1.15;;;;;;;19.09;45.03;100564.06;4407389;32;20062;-68
2021/09/28 00:11:37;;;;;;;8.18;1.30;;;;;;;19.09;45.13;100569.78;4406275;32;20078;-68
2021/09/28 00:14:04;;;;;;;9.55;1.75;;;;;;;18.68;46.07;100562.53;4399896;32;20101;-68
2021/09/28 00:16:30;;;;;;;7.43;1.10;;;;;;;18.93;45.67;100565.44;4401739;32;20073;-69
2021/09/28 00:18:58;;;;;;;7.03;1.17;;;;;;;18.81;45.92;100572.28;4401638;32;20078;-68
2021/09/28 00:21:25;;;;;;;12.32;1.60;;;;;;;18.95;45.52;100565.72;4403393;32;20445;-68
2021/09/28 00:23:51;;;;;;;7.85;1.42;;;;;;;18.99;45.55;100579.78;4403416;32;20357;-68
2021/09/28 00:26:17;;;;;;;8.00;1.50;;;;;;;18.88;45.46;100573.91;4404512;32;20033;-68
2021/09/28 00:28:42;;;;;;;12.60;1.40;;;;;;;19.17;45.18;100573.72;4400706;32;20099;-68
2021/09/28 00:31:08;;;;;;;17.85;2.28;;;;;;;18.89;45.82;100578.34;4407126;32;20125;-68
2021/09/28 00:33:34;;;;;;;6.60;1.85;;;;;;;18.77;45.92;100577.41;4401407;32;20431;-68
2021/09/28 00:36:00;;;;;;;20.88;1.85;;;;;;;18.67;46.25;100576.00;4401321;32;20078;-68
2021/09/28 00:38:26;;;;;;;7.90;2.00;;;;;;;18.83;45.86;100581.12;4403769;32;20069;-69
2021/09/28 00:40:52;;;;;;;5.32;1.58;;;;;;;18.87;45.78;100573.13;4402384;32;20126;-68
2021/09/28 00:43:18;;;;;;;16.92;2.05;;;;;;;18.61;46.23;100583.69;4404737;32;20073;-68
2021/09/28 00:45:44;;;;;;;8.95;1.55;;;;;;;18.69;46.17;100584.03;4402884;32;20091;-68
2021/09/28 00:48:09;;;;;;;10.05;2.05;;;;;;;18.64;46.28;100581.91;4405981;32;20039;-68
2021/09/28 00:50:36;;;;;;;8.00;1.70;;;;;;;18.52;46.64;100583.81;4406095;32;20100;-68
2021/09/28 00:53:04;;;;;;;11.18;2.03;;;;;;;18.23;47.53;100589.59;4399443;32;20636;-68
2021/09/28 00:55:30;;;;;;;6.55;1.58;;;;;;;18.35;47.12;100581.97;4406039;32;20084;-68
2021/09/28 00:57:58;;;;;;;11.05;1.60;;;;;;;18.49;46.97;100576.25;4404641;32;20093;-68
2021/09/28 01:00:24;;;;;;;13.90;1.60;;;;;;;18.37;47.01;100585.13;4409335;32;20407;-68
2021/09/28 01:02:52;;;;;;;8.10;1.77;;;;;;;18.59;46.72;100579.78;4404830;32;20026;-68
2021/09/28 01:05:18;;;;;;;10.57;1.95;;;;;;;18.58;46.88;100583.88;4404402;32;20100;-68
2021/09/28 01:07:44;;;;;;;13.13;2.10;;;;;;;18.51;46.93;100584.31;4408063;32;20092;-68
2021/09/28 01:10:10;;;;;;;10.40;1.65;;;;;;;18.40;47.14;100584.94;4407912;32;20035;-68
2021/09/28 01:12:35;;;;;;;11.73;2.25;;;;;;;18.57;46.80;100580.28;4403635;32;20061;-68
2021/09/28 01:15:01;;;;;;;8.18;1.52;;;;;;;18.37;47.20;100583.06;4404922;32;20089;-68
2021/09/28 01:17:27;;;;;;;7.65;1.42;;;;;;;18.42;46.98;100584.44;4408896;32;20052;-68
2021/09/28 01:19:53;;;;;;;10.63;1.70;;;;;;;18.58;46.69;100583.88;4406823;32;20368;-68
2021/09/28 01:22:19;;;;;;;14.57;1.95;;;;;;;18.29;47.34;100596.16;4404057;32;20127;-68
2021/09/28 01:24:48;;;;;;;11.43;1.80;;;;;;;18.23;47.59;100588.78;4406211;32;20049;-68
2021/09/28 01:27:15;;;;;;;9.77;1.60;;;;;;;18.71;46.76;100590.00;4405762;32;20417;-68
2021/09/28 01:29:42;;;;;;;10.15;1.80;;;;;;;18.54;47.06;100586.97;4402118;32;20158;-68
2021/09/28 01:32:11;;;;;;;11.30;1.85;;;;;;;18.29;47.55;100596.16;4404130;32;20423;-68
2021/09/28 01:34:37;;;;;;;9.85;1.90;;;;;;;18.27;47.48;100592.22;4406368;32;20053;-68
2021/09/28 01:37:02;;;;;;;6.68;1.50;;;;;;;18.28;47.63;100593.81;4405760;32;20022;-68
2021/09/28 01:39:28;;;;;;;10.20;1.60;;;;;;;18.16;47.92;100594.91;4405798;32;20716;-68
2021/09/28 01:41:54;;;;;;;6.35;1.77;;;;;;;18.28;47.69;100591.72;4407332;32;20499;-68
2021/09/28 01:44:22;;;;;;;8.93;1.90;;;;;;;18.40;47.27;100599.19;4408210;32;20025;-68
2021/09/28 01:46:50;;;;;;;8.95;1.70;;;;;;;18.48;47.27;100594.66;4411011;32;20131;-68
2021/09/28 01:49:18;;;;;;;10.90;1.65;;;;;;;18.19;48.06;100593.91;4405037;32;20080;-68
2021/09/28 01:51:44;;;;;;;7.57;1.67;;;;;;;18.53;47.40;100601.72;4405887;32;20026;-68
2021/09/28 01:54:11;;;;;;;7.40;1.83;;;;;;;18.19;47.91;100593.91;4405370;32;20383;-68
2021/09/28 01:56:37;;;;;;;11.48;2.05;;;;;;;18.10;48.11;100591.94;4405317;32;20154;-68
2021/09/28 01:59:05;;;;;;;8.98;1.83;;;;;;;18.46;47.35;100590.72;4404738;32;20456;-68
2021/09/28 02:01:31;;;;;;;10.02;1.95;;;;;;;18.42;47.61;100596.63;4404947;32;20046;-69
2021/09/28 02:03:57;;;;;;;6.65;1.50;;;;;;;18.04;48.18;100590.31;4405665;32;20065;-69
2021/09/28 02:06:23;;;;;;;12.05;2.10;;;;;;;18.08;48.06;100593.72;4392248;32;20529;-69
2021/09/28 02:08:50;;;;;;;11.25;2.03;;;;;;;18.09;48.27;100603.84;4405870;32;20041;-69
2021/09/28 02:11:16;;;;;;;16.17;1.60;;;;;;;18.08;48.35;100597.38;4407567;32;20043;-69
2021/09/28 02:13:42;;;;;;;10.10;1.48;;;;;;;18.15;48.10;100601.84;4403570;32;20545;-69
2021/09/28 02:16:08;;;;;;;9.02;1.55;;;;;;;18.16;47.78;100592.81;4386991;32;20069;-69
2021/09/28 02:18:34;;;;;;;7.90;1.77;;;;;;;18.14;47.95;100594.59;4406498;32;20031;-69
2021/09/28 02:21:00;;;;;;;15.07;1.77;;;;;;;18.02;48.21;100593.66;4387546;32;20517;-69
2021/09/28 02:23:26;;;;;;;10.65;1.60;;;;;;;18.08;48.17;100588.81;4403718;32;20372;-69
2021/09/28 02:25:52;;;;;;;13.00;1.48;;;;;;;18.10;48.10;100591.19;4402799;32;20072;-69
2021/09/28 02:28:18;;;;;;;12.30;2.45;;;;;;;18.18;48.00;100592.31;4404746;32;20027;-69
2021/09/28 02:30:44;;;;;;;7.00;1.30;;;;;;;18.14;48.10;100592.56;4403517;32;20064;-69
2021/09/28 02:33:10;;;;;;;10.23;2.28;;;;;;;17.97;48.48;100599.25;4401242;32;20491;-69
2021/09/28 02:35:36;;;;;;;9.13;1.60;;;;;;;17.89;48.69;100591.09;4405322;32;20112;-69
2021/09/28 02:38:02;;;;;;;9.88;1.73;;;;;;;18.01;48.34;100589.22;4402500;32;20444;-69
2021/09/28 02:40:28;;;;;;;9.73;2.17;;;;;;;17.91;48.63;100587.75;4405322;32;20102;-69
2021/09/28 02:42:54;;;;;;;8.70;1.87;;;;;;;17.91;48.46;100596.31;4402681;32;20100;-69
2021/09/28 02:45:21;;;;;;;7.05;1.40;;;;;;;17.95;48.47;100588.38;4403564;32;20101;-69
2021/09/28 02:47:46;;;;;;;8.07;1.30;;;;;;;18.24;48.01;100584.66;4405045;32;20038;-69
2021/09/28 02:50:13;;;;;;;8.55;1.58;;;;;;;18.01;48.36;100588.44;4405034;32;20100;-69
2021/09/28 02:52:39;;;;;;;11.23;1.52;;;;;;;18.08;48.31;100588.81;4402955;32;20253;-69
2021/09/28 02:55:05;;;;;;;10.93;1.60;;;;;;;18.09;48.29;100583.91;4408672;32;20471;-69
2021/09/28 02:57:31;;;;;;;8.82;1.10;;;;;;;18.33;47.80;100578.84;4402478;32;20050;-69
2021/09/28 02:59:57;;;;;;;5.68;1.50;;;;;;;18.20;47.85;100575.53;4404400;32;20139;-69
2021/09/28 03:02:22;;;;;;;9.15;1.50;;;;;;;18.13;47.92;100575.97;4404539;32;20427;-69
2021/09/28 03:04:48;;;;;;;9.48;1.77;;;;;;;18.10;48.07;100580.56;4405212;32;20061;-70
2021/09/28 03:07:14;;;;;;;8.68;1.52;;;;;;;18.01;48.46;100582.75;4405867;32;20144;-69
2021/09/28 03:09:39;;;;;;;11.02;1.83;;;;;;;18.15;48.12;100582.72;4405557;32;20083;-69
2021/09/28 03:12:06;;;;;;;8.65;1.50;;;;;;;18.24;47.90;100584.66;4406100;32;20152;-69
2021/09/28 03:14:31;;;;;;;10.20;1.37;;;;;;;18.37;47.39;100580.22;4402685;32;20038;-69
2021/09/28 03:16:57;;;;;;;11.80;2.12;;;;;;;18.27;47.70;100590.16;4405600;32;20472;-69
2021/09/28 03:19:24;;;;;;;15.60;1.73;;;;;;;18.26;47.75;100584.97;4404766;32;20049;-69
2021/09/28 03:21:51;;;;;;;11.70;2.35;;;;;;;18.21;47.61;100580.75;4404936;32;20044;-69
2021/09/28 03:24:17;;;;;;;12.10;1.45;;;;;;;18.32;47.55;100580.13;4406918;32;20085;-69
2021/09/28 03:26:44;;;;;;;10.25;1.55;;;;;;;18.43;47.46;100581.09;4403900;32;20030;-69
2021/09/28 03:29:10;;;;;;;6.75;1.55;;;;;;;18.60;46.99;100589.87;4404165;32;20064;-69
2021/09/28 03:31:36;;;;;;;8.50;2.03;;;;;;;18.70;46.65;100577.06;4402050;32;20091;-69
2021/09/28 03:34:02;;;;;;;6.75;1.87;;;;;;;18.54;46.81;100583.31;4402178;32;20121;-69
2021/09/28 03:36:27;;;;;;;8.60;1.45;;;;;;;18.78;46.51;100578.97;4405647;32;20018;-69
2021/09/28 03:38:53;;;;;;;10.48;1.77;;;;;;;18.67;46.65;100581.69;4406932;32;20603;-69
2021/09/28 03:41:19;;;;;;;8.30;1.33;;;;;;;18.44;47.06;100579.81;4400611;32;20457;-69
2021/09/28 03:43:45;;;;;;;10.50;1.75;;;;;;;18.81;46.45;100580.81;4401035;32;20094;-69
2021/09/28 03:46:10;;;;;;;10.65;1.65;;;;;;;18.86;46.37;100579.31;4405466;32;20081;-69
2021/09/28 03:48:36;;;;;;;12.57;1.30;;;;;;;18.96;46.08;100572.22;4405093;32;20063;-69
2021/09/28 03:51:02;;;;;;;10.45;2.00;;;;;;;18.71;46.62;100587.16;4408329;32;20162;-69
2021/09/28 03:53:27;;;;;;;8.20;1.40;;;;;;;18.78;46.78;100578.22;4401021;32;20072;-69
2021/09/28 03:55:53;;;;;;;14.30;1.50;;;;;;;18.77;46.75;100576.63;4406233;32;20216;-69
2021/09/28 03:58:19;;;;;;;10.43;1.67;;;;;;;18.90;46.47;100592.09;4403544;32;20053;-69
2021/09/28 04:00:45;;;;;;;8.52;1.75;;;;;;;18.89;46.21;100578.34;4405265;32;20168;-69
2021/09/28 04:03:11;;;;;;;9.15;1.98;;;;;;;18.85;46.57;100577.78;4404524;32;20076;-69
2021/09/28 04:05:37;;;;;;;11.63;1.83;;;;;;;18.89;46.71;100578.34;4400249;32;20026;-69
2021/09/28 04:08:05;;;;;;;14.52;2.28;;;;;;;18.85;46.76;100583.47;4402007;32;20137;-69
2021/09/28 04:10:31;;;;;;;10.52;1.95;;;;;;;18.84;47.03;100585.53;4402845;32;20069;-69
2021/09/28 04:12:57;;;;;;;11.85;1.77;;;;;;;18.98;46.56;100578.97;4401205;32;20274;-69
2021/09/28 04:15:25;;;;;;;8.75;2.00;;;;;;;18.69;47.18;100581.19;4402689;32;20039;-69
2021/09/28 04:17:52;;;;;;;11.85;2.45;;;;;;;18.59;47.67;100583.38;4406039;32;20131;-68
2021/09/28 04:20:18;;;;;;;10.48;2.67;;;;;;;18.86;47.24;100587.88;4403261;32;20034;-69
2021/09/28 04:22:43;;;;;;;20.27;3.12;;;;;;;18.54;48.00;100595.50;4403905;32;20169;-69
2021/09/28 04:25:10;;;;;;;14.15;2.80;;;;;;;18.52;48.24;100588.72;4404055;32;20088;-69
2021/09/28 04:27:36;;;;;;;16.08;3.55;;;;;;;18.78;47.63;100587.53;4403441;32;20086;-69
2021/09/28 04:30:03;;;;;;;20.35;3.97;;;;;;;18.58;48.07;100587.53;4401262;32;20096;-69
2021/09/28 04:32:29;;;;;;;13.20;3.17;;;;;;;18.76;47.91;100595.03;4401992;32;20048;-69
2021/09/28 04:34:55;;;;;;;12.25;3.35;;;;;;;18.56;48.27;100589.31;4375999;32;20158;-69
2021/09/28 04:37:20;;;;;;;13.82;3.40;;;;;;;18.24;49.17;100584.66;4376378;32;20062;-69
2021/09/28 04:39:46;;;;;;;13.20;2.97;;;;;;;18.47;48.37;100586.59;4374937;32;20123;-69
2021/09/28 04:42:14;;;;;;;16.02;3.00;;;;;;;18.34;48.97;100591.78;4377017;32;20045;-69
2021/09/28 04:44:40;;;;;;;15.05;2.75;;;;;;;18.28;49.10;100591.72;4376634;32;20035;-69
2021/09/28 04:47:05;;;;;;;8.27;3.10;;;;;;;18.21;49.17;100597.03;4376697;32;20415;-69
2021/09/28 04:49:31;;;;;;;17.17;3.65;;;;;;;18.62;48.27;100584.47;4375321;32;20436;-69
2021/09/28 04:51:57;;;;;;;16.80;3.70;;;;;;;18.60;48.30;100593.53;4376582;32;20064;-69
2021/09/28 04:54:22;;;;;;;11.85;3.40;;;;;;;18.63;48.30;100595.38;4375303;32;20101;-69
2021/09/28 04:56:48;;;;;;;15.23;3.90;;;;;;;18.57;48.49;100597.38;4376142;32;20451;-69
2021/09/28 04:59:14;;;;;;;13.85;3.53;;;;;;;18.42;48.85;100595.84;4378256;32;20104;-69
2021/09/28 05:01:39;;;;;;;12.55;4.43;;;;;;;18.55;48.51;100593.44;4375570;32;20518;-69
2021/09/28 05:04:06;;;;;;;16.12;3.70;;;;;;;18.55;48.63;100599.94;4376624;32;20122;-69
2021/09/28 05:06:32;;;;;;;17.70;4.03;;;;;;;18.53;48.66;100588.22;4374439;32;20110;-69
2021/09/28 05:08:58;;;;;;;23.23;4.00;;;;;;;18.56;48.55;100592.94;4375531;32;20153;-69
2021/09/28 05:11:24;;;;;;;9.98;3.97;;;;;;;18.58;48.67;100596.06;4375338;32;20133;-70
2021/09/28 05:13:49;;;;;;;9.68;3.97;;;;;;;18.56;48.76;100592.94;4373016;32;20141;-69
2021/09/28 05:16:15;;;;;;;12.43;3.28;;;;;;;18.58;48.73;100598.12;4375147;32;20158;-69
2021/09/28 05:18:41;;;;;;;19.58;3.45;;;;;;;18.41;49.37;100588.59;4375399;32;20094;-69
2021/09/28 05:21:06;;;;;;;15.93;4.07;;;;;;;18.59;48.98;100589.09;4375192;32;20082;-69
2021/09/28 05:23:32;;;;;;;13.75;4.22;;;;;;;18.90;48.39;100591.31;4373039;32;20081;-69
2021/09/28 05:25:58;;;;;;;9.70;3.58;;;;;;;18.56;49.20;100592.16;4375752;32;20086;-69
2021/09/28 05:28:24;;;;;;;13.07;3.87;;;;;;;18.56;49.42;100578.69;4377183;32;20039;-69
2021/09/28 05:30:50;;;;;;;13.93;4.18;;;;;;;18.55;49.34;100588.53;4375478;32;20061;-69
2021/09/28 05:33:16;;;;;;;16.55;3.80;;;;;;;18.68;48.87;100583.25;4378496;32;20082;-69
2021/09/28 05:35:41;;;;;;;12.60;3.53;;;;;;;18.66;49.01;100585.84;4402746;32;20052;-69
2021/09/28 05:38:07;;;;;;;12.48;3.00;;;;;;;18.72;48.87;100591.59;4402118;32;20053;-69
2021/09/28 05:40:33;;;;;;;10.10;3.85;;;;;;;18.82;48.56;100578.78;4406340;32;20039;-69
2021/09/28 05:42:59;;;;;;;15.07;3.72;;;;;;;18.97;48.13;100585.19;4407049;32;20136;-69
2021/09/28 05:45:25;;;;;;;13.77;3.28;;;;;;;18.97;48.28;100588.81;4408766;32;20161;-69
2021/09/28 05:47:50;;;;;;;17.62;3.70;;;;;;;18.97;48.16;100591.69;4406853;32;20097;-69
2021/09/28 05:50:17;;;;;;;12.23;3.33;;;;;;;19.09;48.04;100589.75;4406268;32;20100;-69
2021/09/28 05:52:44;;;;;;;10.88;3.15;;;;;;;19.17;47.77;100588.78;4403829;32;20170;-69
2021/09/28 05:55:10;;;;;;;11.90;2.92;;;;;;;19.27;47.60;100598.03;4402375;32;20022;-69
2021/09/28 05:57:36;;;;;;;15.77;3.50;;;;;;;19.31;47.28;100590.00;4407033;32;20077;-69
2021/09/28 06:00:03;;;;;;;10.30;3.20;;;;;;;19.10;47.74;100586.37;4405107;32;20396;-69
2021/09/28 06:02:29;;;;;;;13.00;3.42;;;;;;;19.25;47.49;100598.50;4407777;32;20170;-69
2021/09/28 06:04:55;;;;;;;12.75;3.20;;;;;;;19.11;47.75;100590.00;4405632;32;20479;-69
2021/09/28 06:07:21;;;;;;;15.40;3.67;;;;;;;19.17;47.68;100580.22;4404916;32;20081;-69
2021/09/28 06:09:48;;;;;;;10.63;2.87;;;;;;;19.42;47.41;100588.06;4407006;32;20063;-69
2021/09/28 06:12:15;;;;;;;12.20;3.72;;;;;;;19.19;47.61;100588.28;4404227;32;20417;-69
2021/09/28 06:14:42;;;;;;;19.23;3.67;;;;;;;19.30;47.74;100586.37;4402516;32;20064;-69
2021/09/28 06:17:09;;;;;;;16.83;5.20;;;;;;;19.38;47.48;100593.22;4406260;32;20420;-69
2021/09/28 06:19:35;;;;;;;15.60;3.62;;;;;;;19.40;47.30;100589.84;4397515;32;20100;-69
2021/09/28 06:22:04;;;;;;;15.02;4.05;;;;;;;19.29;47.49;100590.53;4405694;32;20128;-69
2021/09/28 06:24:32;;;;;;;11.82;4.07;;;;;;;19.55;47.13;100585.59;4401852;32;20077;-69
2021/09/28 06:26:59;;;;;;;13.27;3.75;;;;;;;19.70;46.61;100586.25;4407362;32;20033;-69
2021/09/28 06:29:24;;;;;;;15.88;4.10;;;;;;;19.57;46.99;100585.87;4404294;32;20089;-68
2021/09/28 06:31:50;;;;;;;13.88;4.10;;;;;;;19.58;46.90;100590.28;4404797;32;20116;-69
2021/09/28 06:34:15;;;;;;;13.88;3.50;;;;;;;19.66;46.64;100587.78;4404015;32;20058;-69
2021/09/28 06:36:41;;;;;;;17.00;4.03;;;;;;;19.69;46.58;100589.63;4401160;32;20053;-69
2021/09/28 06:39:07;;;;;;;18.40;4.15;;;;;;;19.62;46.72;100592.94;4402823;32;20046;-69
2021/09/28 06:41:33;;;;;;;14.43;5.07;;;;;;;19.78;46.50;100595.16;4401285;32;20522;-69
2021/09/28 06:44:00;;;;;;;19.83;4.12;;;;;;;19.66;46.70;100576.34;4400411;32;20072;-69
2021/09/28 06:46:26;;;;;;;16.10;3.70;;;;;;;19.88;46.14;100579.41;4396152;32;20077;-69
2021/09/28 06:48:52;;;;;;;22.48;4.18;;;;;;;20.03;45.90;100571.47;4371537;32;20082;-69
2021/09/28 06:51:18;;;;;;;11.60;3.58;;;;;;;19.80;46.31;100579.06;4400230;32;20088;-70
2021/09/28 06:53:45;;;;;;;11.80;3.40;;;;;;;20.12;45.75;100568.47;4394161;32;21860;-70
2021/09/28 06:56:12;;;;;;;14.48;3.62;;;;;;;19.98;45.66;100569.37;4393372;32;20034;-70
2021/09/28 06:58:38;;;;;;;10.77;3.50;;;;;;;20.27;45.36;100571.94;4397038;32;20061;-70
2021/09/28 07:01:04;;;;;;;20.23;4.50;;;;;;;20.15;45.54;100570.28;4395709;32;20096;-70
2021/09/28 07:03:33;;;;;;;18.02;4.20;;;;;;;20.19;45.10;100575.78;4385736;32;20523;-70
2021/09/28 07:05:58;;;;;;;15.73;4.53;;;;;;;20.23;44.95;100577.13;4392391;32;20057;-70
2021/09/28 07:08:25;;;;;;;13.48;3.80;;;;;;;20.24;45.13;100572.97;4397308;32;20165;-70
2021/09/28 07:10:50;;;;;;;14.52;4.10;;;;;;;20.14;45.40;100570.81;4394076;32;20097;-70
2021/09/28 07:13:16;;;;;;;12.93;3.65;;;;;;;20.23;45.45;100571.41;4391662;32;20113;-70
2021/09/28 07:15:42;;;;;;;15.65;3.85;;;;;;;20.26;45.23;100567.53;4396018;32;20069;-70
2021/09/28 07:18:07;;;;;;;15.18;4.07;;;;;;;20.32;44.99;100562.63;4391735;32;20399;-70
2021/09/28 07:20:33;;;;;;;12.30;3.75;;;;;;;20.38;44.87;100562.66;4393025;32;20117;-70
2021/09/28 07:22:59;;;;;;;17.52;4.00;;;;;;;20.36;45.19;100568.87;4385756;32;20107;-70
2021/09/28 07:25:24;;;;;;;15.82;3.75;;;;;;;20.38;45.06;100574.09;4388620;32;20364;-70
2021/09/28 07:27:50;;;;;;;19.85;3.10;;;;;;;20.22;45.62;100566.19;4389707;32;20185;-70
2021/09/28 07:30:17;;;;;;;18.87;2.85;;;;;;;20.48;45.03;100564.00;4389618;32;20038;-70
2021/09/28 07:32:43;;;;;;;12.02;3.10;;;;;;;20.35;45.21;100561.63;4393668;32;20077;-71
2021/09/28 07:35:10;;;;;;;16.00;3.22;;;;;;;20.85;44.46;100564.72;4391602;32;21868;-71
2021/09/28 07:37:35;;;;;;;13.25;3.58;;;;;;;20.74;44.53;100562.59;4391679;32;20647;-71
2021/09/28 07:40:02;;;;;;;29.02;3.28;;;;;;;20.70;44.42;100559.19;4391619;32;20049;-71
2021/09/28 07:42:28;;;;;;;20.23;3.62;;;;;;;20.96;44.18;100562.69;4389112;32;20124;-71
2021/09/28 07:44:55;;;;;;;9.52;2.30;;;;;;;21.04;44.04;100560.13;4392963;32;20046;-70
2021/09/28 07:47:21;;;;;;;14.20;3.80;;;;;;;21.29;43.76;100564.88;4391558;32;20795;-70
2021/09/28 07:49:47;;;;;;;11.12;2.97;;;;;;;21.34;43.47;100559.19;4388552;32;20089;-69
2021/09/28 07:52:13;;;;;;;23.75;2.97;;;;;;;21.42;43.21;100562.34;4391922;32;20082;-69
2021/09/28 07:54:40;;;;;;;14.40;2.85;;;;;;;21.67;42.73;100556.34;4389561;32;20108;-69
2021/09/28 07:57:06;;;;;;;18.27;3.30;;;;;;;21.74;42.56;100566.56;4390831;32;20470;-68
2021/09/28 07:59:32;;;;;;;11.07;2.75;;;;;;;21.89;42.25;100561.34;4387803;32;20476;-69
2021/09/28 08:01:58;;;;;;;16.87;3.42;;;;;;;21.86;42.31;100550.13;4387140;32;20101;-71
2021/09/28 08:04:24;;;;;;;17.80;2.67;;;;;;;22.11;41.76;100554.81;4391575;32;21144;-70
2021/09/28 08:06:49;;;;;;;14.73;2.83;;;;;;;22.39;41.20;100553.47;4394056;32;20721;-70
2021/09/28 08:09:15;;;;;;;15.45;3.00;;;;;;;22.38;41.13;100545.37;4393545;32;20431;-70
2021/09/28 08:11:42;;;;;;;13.70;3.15;;;;;;;22.72;40.35;100544.78;4394195;32;20077;-70
2021/09/28 08:14:09;;;;;;;12.07;2.30;;;;;;;23.46;39.76;100544.69;4392918;32;20134;-69
2021/09/28 08:16:36;;;;;;;14.23;3.05;;;;;;;23.88;38.28;100549.84;4393240;32;20082;-70
2021/09/28 08:19:03;;;;;;;13.20;2.35;;;;;;;24.41;37.37;100540.47;4391611;32;20482;-70
2021/09/28 08:21:29;;;;;;;23.02;2.80;;;;;;;24.20;37.94;100539.38;4394708;32;21129;-69
2021/09/28 08:23:56;;;;;;;19.05;2.42;;;;;;;24.33;37.39;100539.50;4394227;32;20089;-70
2021/09/28 08:29:09;;;;;;;14.25;2.85;;;;;;;25.01;36.54;100541.09;3973158;32;15152298;-70
2021/09/28 08:34:15;;;;;;;14.55;2.35;;;;;;;24.80;36.87;100534.28;3932768;32;15724201;-70
2021/09/28 08:36:41;;;;;;;11.55;1.95;;;;;;;24.25;37.86;100527.06;4403265;32;20083;-70
2021/09/28 08:39:11;;;;;;;10.43;2.50;;;;;;;24.16;37.99;100524.53;4402364;32;20080;-71
2021/09/28 08:41:39;;;;;;;9.68;2.47;;;;;;;23.74;39.00;100528.00;4402221;32;20089;-70
2021/09/28 08:44:05;;;;;;;19.85;2.97;;;;;;;23.72;39.18;100527.00;4403071;32;20119;-70
2021/09/28 08:46:31;;;;;;;16.37;2.22;;;;;;;23.63;39.28;100535.94;4402182;32;20111;-70
2021/09/28 08:48:57;;;;;;;11.10;2.42;;;;;;;24.09;38.22;100525.13;4406026;32;20119;-70
2021/09/28 08:51:23;;;;;;;15.63;2.35;;;;;;;24.08;38.18;100523.56;4406107;32;22067;-70
2021/09/28 08:53:50;;;;;;;19.17;2.00;;;;;;;24.80;37.24;100520.69;4404728;32;20086;-70
2021/09/28 08:56:17;;;;;;;17.12;2.28;;;;;;;24.29;37.67;100516.03;4403236;32;20462;-71
2021/09/28 09:01:37;;;;;;;13.90;2.05;;;;;;;24.57;37.29;100519.38;3985026;31;15016728;-69
2021/09/28 09:04:20;;;;;;;25.05;2.20;;;;;;;24.19;38.18;100514.03;4432363;32;20106;-70
2021/09/28 09:06:46;;;;;;;10.70;2.85;;;;;;;24.64;37.32;100512.25;4437995;32;20624;-70
2021/09/28 09:09:13;;;;;;;9.05;2.28;;;;;;;24.82;37.00;100489.25;4441944;32;20077;-70
2021/09/28 09:11:41;;;;;;;14.82;2.55;;;;;;;25.30;36.46;100502.72;4444852;32;20464;-70
2021/09/28 09:14:25;;;;;;;12.05;2.47;;;;;;;26.23;35.04;100499.62;4444367;32;20080;-71
2021/09/28 09:16:54;;;;;;;5.93;1.50;;;;;;;26.29;34.38;100506.06;4429436;32;20071;-70
2021/09/28 09:19:24;;;;;;;9.48;2.33;;;;;;;25.72;35.38;100496.03;4441721;32;20105;-71
2021/09/28 09:21:52;;;;;;;11.73;2.00;;;;;;;26.08;34.80;100496.47;4440510;32;20133;-70
2021/09/28 09:24:40;;;;;;;15.30;2.72;;;;;;;26.13;34.88;100492.69;4442654;32;20560;-71
2021/09/28 09:27:06;;;;;;;12.02;1.73;;;;;;;25.82;35.01;100487.75;4441138;32;20084;-70
2021/09/28 09:29:32;;;;;;;14.20;2.08;;;;;;;25.61;35.66;100476.03;4439431;32;20060;-70
2021/09/28 09:31:57;;;;;;;14.80;2.30;;;;;;;25.26;35.96;100487.84;4439576;32;20076;-70
2021/09/28 09:34:25;;;;;;;14.50;2.00;;;;;;;25.57;35.49;100466.16;4441637;32;20104;-70
2021/09/28 09:36:56;;;;;;;9.88;2.05;;;;;;;24.85;36.75;100476.66;4433373;32;20081;-71
2021/09/28 09:39:22;;;;;;;9.20;2.08;;;;;;;24.96;36.97;100479.38;4441192;32;20033;-70
2021/09/28 09:42:03;;;;;;;7.80;1.95;;;;;;;25.24;36.28;100470.31;4427699;32;20142;-71
2021/09/28 09:44:30;;;;;;;10.68;2.10;;;;;;;24.79;37.12;100464.44;4443501;32;20096;-71
2021/09/28 09:46:56;;;;;;;13.88;2.10;;;;;;;24.24;38.29;100464.31;4442833;32;20076;-71
2021/09/28 09:52:08;;;;;;;15.73;2.47;;;;;;;25.53;36.39;100454.97;3967411;31;15707403;-72
2021/09/28 09:54:43;;;;;;;11.05;1.80;;;;;;;25.53;36.39;100454.97;4447700;32;20251;-72
2021/09/28 09:57:11;;;;;;;9.25;1.80;;;;;;;25.16;36.45;100464.41;4446513;32;20107;-72
2021/09/28 09:59:38;;;;;;;9.32;1.90;;;;;;;25.54;35.96;100453.63;4445704;32;20081;-72
2021/09/28 10:02:05;;;;;;;14.35;2.10;;;;;;;26.33;34.67;100454.56;4446666;32;20053;-72
2021/09/28 10:04:31;;;;;;;8.73;1.70;;;;;;;26.48;34.33;100446.87;4444498;32;20041;-72
2021/09/28 10:07:01;;;;;;;10.18;2.03;;;;;;;26.77;33.46;100434.22;4445224;32;20118;-72
2021/09/28 10:09:30;;;;;;;13.25;2.28;;;;;;;27.12;32.72;100439.44;4441777;32;20079;-70
2021/09/28 10:12:00;;;;;;;10.02;1.87;;;;;;;26.72;33.49;100437.25;4446082;32;20091;-70
2021/09/28 10:17:39;;;;;;;12.60;2.00;;;;;;;26.82;33.25;100421.75;3990693;31;15017226;-71
2021/09/28 10:20:07;;;;;;;13.18;2.00;;;;;;;26.82;33.25;100421.75;4443206;32;20064;-70
2021/09/28 10:28:16;;;;;;;7.65;1.42;;;;;;;26.66;33.53;100411.38;3978219;32;15023241;-70
2021/09/28 10:30:44;;;;;;;8.77;1.52;;;;;;;26.55;33.58;100422.34;4427765;32;20033;-71
2021/09/28 10:35:56;;;;;;;12.43;1.48;;;;;;;29.00;29.96;100391.62;3944106;32;15725693;-72
2021/09/28 10:41:41;;;;;;;8.02;1.60;;;;;;;29.50;28.99;100397.91;3972425;32;15022275;-71
2021/09/28 10:47:04;;;;;;;11.05;1.50;;;;;;;28.34;30.53;100369.72;3969598;32;15026648;-71
2021/09/28 10:49:32;;;;;;;9.73;1.65;;;;;;;28.34;30.53;100369.72;4414345;32;20072;-71
2021/09/28 11:00:53;;;;;;;9.13;1.37;;;;;;;26.56;33.46;100358.28;3975865;32;15022814;-71
2021/09/28 11:03:43;;;;;;;8.80;1.30;;;;;;;26.52;33.43;100359.97;4437540;32;20132;-71
2021/09/28 11:06:10;;;;;;;13.32;1.85;;;;;;;26.93;32.71;100355.09;4440377;32;20101;-71
2021/09/28 11:08:36;;;;;;;15.88;2.28;;;;;;;27.39;32.12;100356.31;4429930;32;20125;-71
2021/09/28 11:11:05;;;;;;;12.57;1.75;;;;;;;27.66;31.65;100343.25;4443438;32;20372;-71
2021/09/28 11:13:34;;;;;;;9.38;1.52;;;;;;;28.38;30.76;100341.97;4443222;32;20061;-71
2021/09/28 11:16:02;;;;;;;11.25;1.60;;;;;;;27.90;31.21;100339.19;4442390;32;20065;-71
2021/09/28 11:18:28;;;;;;;10.45;1.73;;;;;;;27.42;32.08;100331.31;4438442;32;20772;-71
2021/09/28 11:21:08;;;;;;;8.00;2.03;;;;;;;27.62;31.45;100321.81;4439844;32;20398;-71
2021/09/28 11:23:34;;;;;;;8.20;1.55;;;;;;;27.91;31.19;100321.28;4435872;32;20045;-71
2021/09/28 11:26:00;;;;;;;7.40;1.50;;;;;;;26.71;33.02;100323.88;4441514;32;20418;-71
2021/09/28 11:28:25;;;;;;;12.23;1.75;;;;;;;26.62;33.35;100312.78;4442338;32;20099;-71
2021/09/28 11:30:54;;;;;;;8.63;1.45;;;;;;;26.00;34.51;100311.00;4441293;32;20080;-71
2021/09/28 11:33:21;;;;;;;8.15;1.67;;;;;;;26.43;34.25;100302.72;4440013;32;20077;-71
2021/09/28 11:38:40;;;;;;;6.85;1.60;;;;;;;26.78;33.76;100291.41;3974029;32;15025973;-71
2021/09/28 11:41:10;;;;;;;10.75;1.65;;;;;;;26.78;33.76;100291.41;4421926;32;21334;-71
2021/09/28 11:43:37;;;;;;;9.25;1.40;;;;;;;25.51;35.47;100295.47;4414684;32;20092;-70
2021/09/28 11:46:07;;;;;;;9.57;1.50;;;;;;;25.40;35.62;100295.69;4422349;32;20117;-70
2021/09/28 11:51:24;;;;;;;11.70;1.10;;;;;;;25.64;35.49;100299.13;3982107;31;15016666;-72
2021/09/28 11:53:53;;;;;;;10.18;1.30;;;;;;;25.64;35.49;100299.13;4430789;32;20422;-69
2021/09/28 11:56:20;;;;;;;12.93;1.65;;;;;;;24.77;36.47;100273.47;4435150;32;20528;-69
2021/09/28 11:58:51;;;;;;;11.00;2.95;;;;;;;24.64;37.00;100276.28;4433933;32;20377;-68
2021/09/28 12:01:19;;;;;;;7.78;1.45;;;;;;;24.75;37.54;100287.63;4435212;32;20328;-69